Results by/Résultats par Info:[email protected] Phone: (613)260-0994
  
                                     K-TOWN TRIATHLON

                                  Sunday August 5th, 2001
                           Confederation Park, Kingston, Ontario

                          Overall Results - Long Course Triathlon

  -----FINAL----- ----------------------- ------------ -------------------- ----            2 km                       56.5 km                   15 km
                                                       Category                     --------SWIM----------    ----------BIKE--------    ---------RUN-----------
    Pos     Time  Name                    City         Plc/Total Category     #      Cat  Ovr  Time  /100m     Cat Ovr Time  km/hr      Cat  Ovr  Time     km
  ------  ------- ----------------------- ------------ -------------------- ----    ----------------------    ----------------------    -----------------------
    1     2:56:23 Nigel Gray              Leaside      1/7   Elite Men      10    4      6   31:07  1:34    1      1 1:26:24  39.2     2      2   58:52  3:56 
    2     2:59:05 Rick Hellard            Ottawa       1/28  M35 - 39      533    2     10   31:41  1:36    1      2 1:27:37  38.7     1      4   59:47  4:00 
    3     3:00:23 Daniel Watson           Ottawa       2/7   Elite Men       7    2      3   30:34  1:32    2      3 1:28:45  38.2     4      7 1:01:05  4:05 
    4     3:00:26 Adam Campbell           Kingston     3/7   Elite Men       8    6     14   32:48  1:39    6     15 1:33:02  36.4     1      1   54:37  3:39 
    5     3:03:15 Ka-Yu Law               Kingston     4/7   Elite Men       1    3      5   30:58  1:33    4      5 1:30:52  37.3     5      8 1:01:26  4:06 
    6     3:04:26 Eric Virkler            Lowville     2/28  M35 - 39      427    1      8   31:20  1:34    2      8 1:31:22  37.1     3     10 1:01:45  4:07 
    7     3:05:44 Colin Ward              Kingston     1/5   M20 - 24      501    3     25   35:23  1:47    1      9 1:31:27  37.1     1      3   58:56  3:56 
    8     3:05:59 Dennis Moriarty         Webster      5/7   Elite Men       6    7     16   33:43  1:42    5      6 1:31:14  37.2     3      6 1:01:03  4:05 
    9     3:08:30 Eric Roy                Ottawa       6/7   Elite Men      11    5     11   31:50  1:36    3      4 1:30:00  37.7     6     23 1:06:41  4:27 
   10     3:08:32 Tony O'Keefe            Kingston     3/28  M35 - 39      455    4     21   34:45  1:45    3     10 1:32:09  36.8     2      9 1:01:39  4:07 
   11     3:09:41 John Westdal            Ottawa       1/24  M30 - 34      386    1     12   31:52  1:36    1      7 1:31:18  37.1     6     22 1:06:32  4:27 
   12     3:09:55 Patrick Turner          Vancouver    1/15  M40 - 44      475    3     17   34:24  1:44    1     17 1:33:10  36.4     1     12 1:02:23  4:10 
   13     3:10:39 Peter Van Wesenbeck     Ottawa       2/24  M30 - 34      279    9     48   37:44  1:54    3     14 1:32:53  36.5     1      5 1:00:03  4:01 
   14     3:11:49 Allan Faulds            Frankford    3/24  M30 - 34      408    2     23   34:48  1:45    6     27 1:34:58  35.7     2     11 1:02:04  4:09 
   15     3:12:44 Peter Konecny           Ottawa       4/28  M35 - 39       41    5     34   36:19  1:49    4     19 1:33:23  36.3     4     14 1:03:03  4:13 
   16     3:12:52 Chris Milburn           Kingston     4/24  M30 - 34      144    6     37   36:34  1:50    2     13 1:32:22  36.7     3     16 1:03:58  4:16 
   17     3:13:09 Steven Blostein         Kingston     2/15  M40 - 44       69    2     13   32:32  1:38    2     18 1:33:15  36.4     2     24 1:07:23  4:30 
   18     3:13:46 Pat MCNEELY             Spencervil   1/12  M25 - 29      546    2     36   36:31  1:50    2     25 1:34:49  35.8     2     13 1:02:26  4:10 
   19     3:16:02 Clive Morgan            Yarker       3/15  M40 - 44      128    1      7   31:08  1:34    3     35 1:37:28  34.8     3     25 1:07:27  4:30 
   20     3:16:33 Robin McGilp            Toronto      5/24  M30 - 34      484    7     39   36:43  1:51    4     21 1:34:16  36.0     5     20 1:05:34  4:23 
   21     3:16:47 Remy LAROCQUE           Mascouche    2/5   M20 - 24      545    2     15   33:32  1:41    2     12 1:32:20  36.7     3     35 1:10:56  4:44 
   22     3:20:07 Jonathan Boocock        Woodlawn     5/28  M35 - 39      440    7     61   40:07  2:01    6     24 1:34:45  35.8     6     19 1:05:16  4:22 
   23     3:20:39 Graeme Magor            Markdale     1/14  M45 - 49      305    4     50   37:45  1:54    2     20 1:33:43  36.2     2     27 1:09:11  4:37 
   24     3:20:51 Rachel Joyce            Kingston     1/1   Elite Women     2    1      4   30:52  1:33    1     66 1:43:31  32.8     1     21 1:06:29  4:26 
   25     3:21:55 Rodrigo Diaz            Kingston     7/7   Elite Men       9    1      2   29:14  1:28    7     39 1:38:31  34.4     7     43 1:14:10  4:57 
   26     3:24:16 Mike MARRIOTT           Kingston     6/28  M35 - 39      548    13    92   43:57  2:12    8     28 1:35:46  35.4     5     17 1:04:33  4:19 
   27     3:24:44 Eric Clark              Ottawa       6/24  M30 - 34      511    3     26   35:38  1:47    16    71 1:44:31  32.4     4     18 1:04:36  4:19 
   28     3:25:39 Linnea Humphrey         Toronto      1/12  W35 - 39       72    2     33   36:17  1:49    1     44 1:39:19  34.1     1     31 1:10:04  4:41 
   29     3:25:56 Jeff Tracey             Orleans      2/14  M45 - 49      358    1     30   36:10  1:49    1     16 1:33:08  36.4     6     53 1:16:38  5:07 
   30     3:28:02 Marie-Josee Danais      Hull         1/11  W30 - 34      468    1      9   31:40  1:35    1     53 1:41:09  33.5     2     47 1:15:14  5:01 
   31     3:28:14 George REID             Ottawa       3/14  M45 - 49      554    9     68   41:24  2:05    6     64 1:43:05  32.9     1     15 1:03:47  4:16 
   32     3:28:35 Jim McDonald            Halifax      7/28  M35 - 39      422    12    90   43:39  2:11    9     31 1:36:50  35.0     7     26 1:08:07  4:33 
   33     3:28:58 Gordon Dilabio          Brockville   4/14  M45 - 49      503    8     66   41:12  2:04    4     37 1:38:05  34.6     3     30 1:09:42  4:39 
   34     3:29:01 Rudy Hollywood          Nepean       1/2   M55 - 59      331    1     18   34:39  1:44    1     50 1:40:44  33.7     1     42 1:13:39  4:55 
   35     3:29:30 Jason Boeki             Toronto      2/12  M25 - 29      451    4     57   38:45  1:57    1     11 1:32:15  36.8     6     59 1:18:32  5:15 
   36     3:29:42 Daniel Wells            Holland LD   3/5   M20 - 24      215    1      1   29:10  1:28    3     38 1:38:22  34.5     4     75 1:22:11  5:29 
   37     3:29:57 Tim Gillespe            Kingston     4/5   M20 - 24      383    4     29   36:04  1:49    4     65 1:43:19  32.8     2     33 1:10:35  4:43 
   38     3:31:46 Terry Linseman          Sarnia       5/14  M45 - 49       68    12    93   44:13  2:13    3     32 1:36:51  35.0     4     34 1:10:44  4:43 
   39     3:31:48 Cheryl Iselmoe          Orleans      2/11  W30 - 34      443    2     41   36:47  1:51    3     74 1:45:21  32.2     1     29 1:09:41  4:39 
   40     3:32:09 Robert West             Toronto      7/24  M30 - 34      541    4     27   35:46  1:48    9     34 1:37:05  34.9     10    62 1:19:19  5:18 
   41     3:32:41 Douglas Blades          Brampton     8/24  M30 - 34      437    12    72   42:00  2:06    5     22 1:34:23  35.9     8     52 1:16:18  5:06 
   42     3:32:41 Adam Johnston           Richmond H   3/12  M25 - 29      298    3     38   36:41  1:51    3     29 1:36:35  35.1     7     63 1:19:26  5:18 
   43     3:33:12 Dave Dame               Seeley's B   4/12  M25 - 29      390    8     95   44:18  2:13    4     40 1:38:47  34.3     3     32 1:10:08  4:41 
   44     3:33:52 Aron Weir               Guelph       5/12  M25 - 29       88    5     74   42:12  2:07    6     49 1:40:26  33.8     4     37 1:11:14  4:45 
   45     3:34:12 Lynda Magor             Markdale     2/12  W35 - 39      103    4     49   37:44  1:54    2     68 1:43:41  32.7     3     39 1:12:49  4:52 
   46     3:36:00 Chris Huet              Caledon Ea   3/12  W35 - 39      241    5     51   37:51  1:54    3     75 1:45:22  32.2     2     38 1:12:48  4:52 
   47     3:36:06 Jennifer Hollman        Toronto      1/10  W25 - 29       80    4     47   37:33  1:53    1     61 1:42:18  33.1     3     51 1:16:17  5:06 
   48     3:37:16 John Garey              Richmond H   9/24  M30 - 34      246    13    73   42:03  2:07    14    62 1:42:25  33.1     7     40 1:12:49  4:52 
   49     3:38:09 Mark Davis              Cobourg      4/15  M40 - 44      213    6     70   41:45  2:06    7     56 1:41:25  33.4     5     46 1:15:00  5:00 
   50     3:38:19 Alan Vinegar            Toronto      5/15  M40 - 44      445    8     78   42:31  2:08    4     45 1:39:39  34.0     6     50 1:16:11  5:05 
   51     3:38:24 Lynn Fye                Manlius      4/12  W35 - 39      293    1     20   34:44  1:45    6     89 1:49:00  31.1     4     44 1:14:40  4:59 
   52     3:39:15 John Piccioli           Nepean       8/28  M35 - 39      300    11    83   42:46  2:09    13    59 1:41:31  33.4     9     45 1:14:59  5:00 
   53     3:40:39 Mike Wall               Orleans      9/28  M35 - 39      287    3     19   34:42  1:45    7     26 1:34:54  35.7     19   106 1:31:03  6:05 
   54     3:40:48 John Boffin             Mississaug  10/28  M35 - 39      320    8     62   40:18  2:01    11    42 1:38:54  34.3     13    73 1:21:37  5:27 
   55     3:40:49 Curtis Monnier          Kingston    10/24  M30 - 34      139    8     46   37:26  1:53    10    48 1:40:14  33.8     12    80 1:23:10  5:33 
   56     3:41:02 Glenn McLay             Milton      11/28  M35 - 39      130    15    97   44:35  2:14    15    82 1:47:10  31.6     8     28 1:09:17  4:38 
   57     3:41:23 David Brown             Kanata      12/28  M35 - 39      344    14    96   44:24  2:14    10    36 1:37:54  34.6     11    61 1:19:06  5:17 
   58     3:42:13 Fred Topham             Kingston     6/15  M40 - 44      235    10   114   47:26  2:23    6     55 1:41:23  33.4     4     41 1:13:25  4:54 
   59     3:43:54 Gregory Roe             Collingwoo   6/12  M25 - 29      421    7     85   43:16  2:10    5     43 1:39:18  34.1     8     71 1:21:20  5:26 
   60     3:43:56 Joe McGill              Marathon     7/15  M40 - 44      372    7     71   41:48  2:06    5     47 1:40:13  33.8     9     74 1:21:56  5:28 
   61     3:44:02 Norm Flemington         Milton       8/15  M40 - 44      430    5     54   38:11  1:55    8     57 1:41:27  33.4     10    83 1:24:25  5:38 
   62     3:44:47 Andrew Newman           Silver Spr  11/24  M30 - 34      288    5     32   36:16  1:49    13    60 1:41:46  33.3     13    97 1:26:46  5:48 
   63     3:44:48 Judy Rynbeek            Whitby       5/12  W35 - 39      271    3     43   37:21  1:53    4     78 1:45:57  32.0     6     72 1:21:31  5:27 
   64     3:47:12 Andy Gould              Kingston     7/12  M25 - 29      509    9    104   45:32  2:17    9     67 1:43:37  32.7     5     57 1:18:03  5:13 
   65     3:47:27 Taya Jones              Richmond H   2/10  W25 - 29      296    2     40   36:46  1:51    6    115 1:54:45  29.5     2     49 1:15:57  5:04 
   66     3:48:52 Ross Bell               Elizabetht   6/14  M45 - 49       63    3     35   36:30  1:50    9     80 1:46:29  31.8     8     91 1:25:55  5:44 
   67     3:49:05 Tracy Garey             Richmond H   3/11  W30 - 34      247    3     42   37:16  1:52    4     77 1:45:50  32.0     4     93 1:26:00  5:44 
   68     3:50:01 Roy Albon               Toronto      7/14  M45 - 49      210    5     53   38:03  1:55    8     79 1:46:01  32.0     9     92 1:25:58  5:44 
   69     3:50:08 Timothy Bechard         Aylmer      12/24  M30 - 34      332    22   150   54:50  2:45    8     33 1:37:04  34.9     9     58 1:18:14  5:13 
   70     3:50:54 Nicola Cantley          Toronto      3/10  W25 - 29      357    10   135   51:06  2:34    3     87 1:48:49  31.2     1     36 1:11:00  4:44 
   71     3:50:59 Helen Butt              Scarboroug   4/10  W25 - 29      174    7     94   44:15  2:13    2     84 1:48:10  31.3     5     60 1:18:36  5:15 
   72     3:51:39 Todd Stacey             Oshawa      13/28  M35 - 39      217    10    69   41:43  2:06    18    95 1:50:13  30.8     12    65 1:19:44  5:19 
   73     3:53:41 Bill McIlroy            RR2 Perth   14/28  M35 - 39      258    20   118   47:48  2:24    12    46 1:40:01  33.9     16    90 1:25:53  5:44 
   74     3:53:57 Juergen Dingel          Kingston    15/28  M35 - 39      193    24   139   52:09  2:37    14    73 1:44:52  32.3     10    54 1:16:57  5:08 
   75     3:54:03 Fiona Gray              Toronto      5/10  W25 - 29      221    5     63   40:28  2:02    4     97 1:50:50  30.6     6     79 1:22:46  5:32 
   76     3:54:08 Ann Chapman             Lyn          6/12  W35 - 39      182    8     87   43:25  2:11    5     81 1:47:07  31.7     8     81 1:23:36  5:35 
   77     3:54:26 Sharon Ingle            Missisauga   1/6   W40 - 44      538    1     75   42:19  2:07    1     83 1:47:11  31.6     3     86 1:24:57  5:40 
   78     3:54:58 David Wells             Holland La   8/14  M45 - 49      220    6     60   39:32  1:59    7     76 1:45:46  32.1     10   104 1:29:42  5:59 
   79     3:54:59 Wolfgang Hoeksma        Miramichi    1/5   M50 - 54       48    4    141   52:42  2:39    1     63 1:42:44  33.0     1     64 1:19:35  5:19 
   80     3:55:06 Michael Baxter          Rochester    9/14  M45 - 49      527    2     31   36:15  1:49    5     41 1:38:53  34.3     13   126 1:39:59  6:40 
   81     3:55:30 Peter MALON             Guelph      10/14  M45 - 49      558    11    81   42:42  2:09    10    85 1:48:11  31.3     7     85 1:24:38  5:39 
   82     3:55:52 Laurie Wherrett         Whitby       7/12  W35 - 39      135    6     52   37:57  1:54    8    120 1:55:36  29.3     7     76 1:22:20  5:30 
   83     3:56:46 Randal Dyzak            Kingston    16/28  M35 - 39      381    17   100   45:00  2:15    5     23 1:34:28  35.9     22   117 1:37:19  6:30 
   84     3:57:16 Sarah Kalhok            Ottawa       4/11  W30 - 34      540    6    121   47:57  2:24    2     69 1:43:50  32.7     3     89 1:25:30  5:42 
   85     3:58:00 Gord McInnes            Kingston    13/24  M30 - 34       54    21   148   53:48  2:42    15    70 1:44:02  32.6     11    67 1:20:12  5:21 
   86     3:58:05 Louis Cyr               Kingston     9/15  M40 - 44      294    4     44   37:24  1:53    14   119 1:55:35  29.3     11    87 1:25:07  5:41 
   87     3:58:26 Debbie Janisse          Ottawa       2/6   W40 - 44      219    4    122   48:03  2:25    2     91 1:49:21  31.0     2     69 1:21:03  5:25 
   88     3:59:36 Glenda Clapham          Kingston     3/6   W40 - 44      418    2    105   45:37  2:17    4    105 1:53:00  30.0     1     68 1:21:00  5:24 
   89     3:59:51 Doug Macklem            Kingston    10/15  M40 - 44      335    11   116   47:34  2:23    13   113 1:54:29  29.6     7     55 1:17:50  5:12 
   90     4:00:06 Laurie Kelleher         Seneca Fal   6/10  W25 - 29      194    1     24   35:18  1:46    10   146 2:06:47  26.7     4     56 1:18:02  5:13 
   91     4:01:07 Joanna Langley          Ottawa       1/4   W20 - 24      453    1     76   42:21  2:08    1     93 1:49:40  30.9     1    103 1:29:08  5:57 
   92     4:01:20 Maryse AYOTTE           Carrying P   8/12  W35 - 39      553    7     77   42:21  2:08    10   131 1:58:57  28.5     5     66 1:20:03  5:21 
   93     4:01:45 Jim C. Malekos          Kingston    11/14  M45 - 49      385    10    79   42:39  2:08    11    90 1:49:11  31.1     11   105 1:29:56  6:00 
   94     4:02:41 Dale Smith              Brampton    11/15  M40 - 44      140    13   129   49:16  2:28    11   103 1:52:19  30.2     8     70 1:21:07  5:25 
   95     4:03:05 Beverley Wells          Gloucester   9/12  W35 - 39      510    10   112   47:21  2:23    7     99 1:51:40  30.4     9     82 1:24:05  5:37 
   96     4:03:24 Juan-Pablo Perez        Ottawa      17/28  M35 - 39      433    6     56   38:38  1:56    19    96 1:50:16  30.7     21   114 1:34:31  6:19 
   97     4:04:33 Bill Bridel             Ottawa       8/12  M25 - 29       74    11   133   50:47  2:33    10    98 1:51:17  30.5     9     77 1:22:30  5:30 
   98     4:05:50 Calvin Snow             Campbellvi  12/14  M45 - 49      223    7     65   41:04  2:04    13   150 2:09:20  26.2     5     48 1:15:27  5:02 
   99     4:05:58 Suzanne Sinclair        Kingston     7/10  W25 - 29       91    8    102   45:21  2:17    5    111 1:54:04  29.7     7     95 1:26:34  5:47 
  100     4:06:37 Colum MCKINLEY          Toronto     14/24  M30 - 34      561    15    88   43:37  2:11    18   116 1:55:03  29.5     14    99 1:27:57  5:52 
  101     4:07:18 Neale Ginsburg          Toronto     18/28  M35 - 39      106    22   127   48:50  2:27    21   110 1:53:59  29.7     15    84 1:24:29  5:38 
  102     4:07:58 Morris O'Callaghan      Ottawa       2/5   M50 - 54       56    1     59   39:18  1:58    3    121 1:55:54  29.3     3    111 1:32:47  6:12 
  103     4:08:14 James Alexander         Kingston    12/15  M40 - 44       95    9     89   43:39  2:11    10   102 1:51:54  30.3     12   110 1:32:42  6:11 
  104     4:08:24 Arthur Tateishi         Toronto     15/24  M30 - 34      273    19   123   48:07  2:25    12    58 1:41:28  33.4     16   124 1:38:51  6:36 
  105     4:09:24 John Vallier            Kingston    19/28  M35 - 39      384    9     67   41:16  2:04    17    92 1:49:31  31.0     24   123 1:38:38  6:35 
  106     4:09:57 Jane Shaw               Pte-Claire   5/11  W30 - 34      471    5    108   45:53  2:18    5    122 1:56:00  29.2     6    100 1:28:06  5:53 
  107     4:10:17 Jeff Pappin             Stittsvill  20/28  M35 - 39       36    16    99   44:52  2:15    20   100 1:51:42  30.4     20   113 1:33:43  6:15 
  108     4:10:24 Maurice Gallagher       Toronto     21/28  M35 - 39      491                                                         28                     
  109     4:10:29 Wendy Redfern           Oakville     6/11  W30 - 34      104    4     82   42:43  2:09    6    132 1:59:41  28.3     7    101 1:28:06  5:53 
  110     4:11:15 Philip Garnhum          Warkworth   22/28  M35 - 39      368    21   125   48:38  2:26    26   134 1:59:58  28.3     14    78 1:22:40  5:31 
  111     4:12:17 Paul Johnston           Whitby      13/15  M40 - 44       73    14   132   49:55  2:30    9     72 1:44:38  32.4     13   119 1:37:45  6:31 
  112     4:13:06 Debrah Day              Mississaug   1/2   W45 - 49      454    2     98   44:49  2:15    1    106 1:53:09  30.0     1    116 1:35:10  6:21 
  113     4:14:12 Rene Dionne             Ottawa      23/28  M35 - 39      467    25   146   53:18  2:40    22   112 1:54:15  29.7     17    96 1:26:40  5:47 
  114     4:14:35 Suzanne Dostaler        Kingston     4/6   W40 - 44      138    6    153   56:54  2:51    3    104 1:52:25  30.2     4     88 1:25:17  5:42 
  115     4:15:03 Trevor Vowles           Kingston     3/5   M50 - 54      465    3    137   51:51  2:36    2    101 1:51:45  30.3     2    107 1:31:28  6:06 
  116     4:16:04 James Pottage           Trenton     24/28  M35 - 39      404    23   130   49:22  2:29    16    88 1:48:59  31.1     23   118 1:37:45  6:31 
  117     4:17:27 Kim Mitchell            Kingston     8/10  W25 - 29      277    9    113   47:24  2:23    8    129 1:57:52  28.8     8    109 1:32:11  6:09 
  118     4:18:29 Jason Abrams            Ottawa       5/5   M20 - 24      438    5    103   45:24  2:17    5     86 1:48:46  31.2     5    135 1:44:19  6:58 
  119     4:19:48 Wendy Lentini           Mississaug   5/6   W40 - 44      102    5    143   52:59  2:39    5    114 1:54:40  29.6     5    108 1:32:09  6:09 
  120     4:20:40 Lauren Classen          Toronto      2/4   W20 - 24      476    2    109   46:06  2:19    2    137 2:01:43  27.9     2    112 1:32:52  6:12 
  121     4:21:25 Kyla Smith              Kingston     7/11  W30 - 34      177    8    145   53:17  2:40    7    138 2:01:59  27.8     5     94 1:26:10  5:45 
  122     4:22:11 Robert McCaldon         Hartington   1/3   M60 & Over    257    1    140   52:23  2:38    1     94 1:49:48  30.9     1    127 1:40:02  6:41 
  123     4:23:37 Calvin Gehlen           Vancouver   25/28  M35 - 39       31    27   157   59:01  2:58    25   124 1:56:19  29.1     18   102 1:28:18  5:54 
  124     4:24:02 Daniel Lapointe         Laval       13/14  M45 - 49      143    13   128   48:54  2:27    12   125 1:56:33  29.1     12   122 1:38:36  6:35 
  125     4:24:40 Lee-Anne Chase          St Laurent   9/10  W25 - 29      124    6     64   41:02  2:04    9    139 2:02:57  27.6     9    128 1:40:42  6:43 
  126     4:25:05 Sue THOMPSON            Oakville    10/12  W35 - 39       52    9     91   43:47  2:12    9    127 1:57:07  28.9     10   133 1:44:12  6:57 
  127     4:25:10 Seamus Ryan             Kingston    26/28  M35 - 39      181    18   106   45:45  2:18    23   117 1:55:08  29.4     27   134 1:44:19  6:58 
  128     4:26:36 David Denison           Belleville  16/24  M30 - 34      142    20   134   50:49  2:33    21   135 2:00:41  28.1     15   115 1:35:07  6:21 
  129     4:28:06 Lorna Smith             Oshawa       1/1   W50 - 54      420    1    142   52:51  2:39    1    149 2:08:04  26.5     1     98 1:27:13  5:49 
  130     4:30:15 Scott McGhee            Toronto      9/12  M25 - 29      275    12   144   53:14  2:40    11   107 1:53:11  30.0     10   132 1:43:51  6:56 
  131     4:32:49 Paul Clarke             Toronto     17/24  M30 - 34      371    17   107   45:47  2:18    19   126 1:56:54  29.0     18   142 1:50:09  7:21 
  132     4:33:20 Kirk Reid               Ottawa      27/28  M35 - 39       76    26   156   58:42  2:57    24   118 1:55:26  29.4     25   125 1:39:12  6:37 
  133     4:34:01 Lindsay Dixon           Markham      3/4   W20 - 24      423    4    124   48:20  2:25    3    148 2:07:23  26.6     4    121 1:38:19  6:34 
  134     4:34:24 Terry SINGLETON         Oakville     2/2   M55 - 59      556    2    138   52:01  2:37    2    123 1:56:14  29.2     2    139 1:46:10  7:05 
  135     4:34:45 Shane Jennings          Ottawa      28/28  M35 - 39      202    19   111   47:04  2:22    27   142 2:04:18  27.3     26   131 1:43:25  6:54 
  136     4:37:15 Chris Anderson          London      18/24  M30 - 34       43    16   101   45:05  2:16    17   109 1:53:45  29.8     20   145 1:58:26  7:54 
  137     4:38:29 Jim Nelson              Oakville     4/5   M50 - 54      100    2    120   47:51  2:24    5    145 2:06:15  26.9     5    136 1:44:24  6:58 
  138     4:38:36 David Lyon              Kingston     5/5   M50 - 54      149    5    154   57:44  2:54    4    130 1:57:56  28.7     4    130 1:42:58  6:52 
  139     4:39:55 Anna Morris             Milton       2/2   W45 - 49      361    1     86   43:25  2:11    2    147 2:06:47  26.7     2    141 1:49:43  7:19 
  140     4:40:32 Lindsay Anderson        London       8/11  W30 - 34       45    10   152   55:32  2:47    8    141 2:03:32  27.4     8    129 1:41:29  6:46 
  141     4:40:36 Denis Morel             Hartington  14/15  M40 - 44      118    15   136   51:31  2:35    12   108 1:53:19  29.9     14   144 1:55:47  7:44 
  142     4:44:58 Julia Nicholson         Kingston     4/4   W20 - 24      266    3    115   47:28  2:23    4    157 2:19:34  24.3     3    120 1:37:57  6:32 
  143     4:46:01 Heidi HUTCHINGS         Ottawa       9/11  W30 - 34      552    7    131   49:53  2:30    10   153 2:11:07  25.9     9    137 1:45:02  7:01 
  144     4:46:58 Max Dokuchie            Ottawa      19/24  M30 - 34      218    14    84   43:13  2:10    24   156 2:15:18  25.1     17   140 1:48:29  7:14 
  145     4:47:34 Mark Riopelle           Toronto     20/24  M30 - 34       44    18   119   47:49  2:24    20   133 1:59:52  28.3     21   146 1:59:54  8:00 
  146     5:04:50 Mark Spies              Jasper      21/24  M30 - 34      127    23   151   54:57  2:45    23   155 2:14:51  25.1     19   143 1:55:03  7:41 
  147     5:05:24 Roland Sauve            Cobourg     14/14  M45 - 49      129    14   162 1:11:55  3:36                               14                     
  148 DQ  5:18:12 James Gekko             Kingston    22/24  M30 - 34      529    24   155   58:15  2:55    22   152 2:09:52  26.1     22   147 2:10:07  8:41 
  149     5:26:35 David Maskell           Hartington   2/3   M60 & Over    184    2    149   54:19  2:43    2    154 2:12:03  25.7     2    148 2:20:14  9:21 
  150     5:30:06 Barbara Sauve           Cobourg     11/12  W35 - 39       94    12   163 1:18:25  3:56    12   159 2:26:26  23.2     11   138 1:45:16  7:02 
  151             John Hall               Dundas      23/24  M30 - 34      176    10    55   38:20  1:55    7     30 1:36:36  35.1                            
  152 DNF         Aaron Hoag              Toronto     10/12  M25 - 29      308    1     22   34:46  1:45    7     52 1:41:08  33.5                            
  153 DNF         Steven Karlsson         Toronto     24/24  M30 - 34      504    11    58   39:03  1:58    11    51 1:41:02  33.6                            
  154 DQ          Carlos Garcia           Etobicoke   11/12  M25 - 29      530    6     80   42:41  2:09    8     54 1:41:15  33.5     1                      
  155             Julie Boyer             Oakville    10/10  W25 - 29       65    3     45   37:25  1:53    7    128 1:57:22  28.9                            
  156             Norma Lawson            Hamilton     6/6   W40 - 44      172    3    110   46:25  2:20    6    140 2:03:19  27.5                            
  157 DNF         Allan MacDougall        Pierrefond  15/15  M40 - 44      424    12   126   48:44  2:27    15   136 2:01:38  27.9                            
  158             Tyler Waddell           Toronto     12/12  M25 - 29       35    10   117   47:45  2:24    12   144 2:05:20  27.1                            
  159             Gillian JOHNSTON        Toronto     12/12  W35 - 39      550    11   160 1:03:13  3:10    11   143 2:04:55  27.1                            
  160             Barbara Routliffe       Ottawa      10/11  W30 - 34      227    11   158 1:00:16  3:01    9    151 2:09:41  26.1                            
  161             Jane McCaldon           Hartington   1/1   W60 & Over    256    1    159 1:01:04  3:04    1    158 2:22:17  23.8                            
  162 DNF         Bryan Mason             Pickering    1/1   Junior Men    291    1     28   35:47  1:48                                                      
  163 DNF         Annalisa Aboud          Toronto     11/11  W30 - 34      272    9    147   53:30  2:41                                                      
  164             Max SHAFIR              Toronto      3/3   M60 & Over    551    3    161 1:03:13  3:10